Time;durP1;ratioP1;P1;durP2;ratioP2;P2;SDS_P1;SDS_P2;PMS_P1;PMS_P2;Temp;Humidity;BMP_temperature;BMP_pressure;BME280_temperature;BME280_humidity;BME280_pressure;Samples;Min_cycle;Max_cycle;Signal;HPM_P1;HPM_P2
2021/09/05 00:02:09;;;;;;;18.15;12.80;;;;;;;22.58;48.76;101708.02;1754657;80;21543;-50
2021/09/05 00:04:36;;;;;;;14.38;12.65;;;;;;;22.57;48.78;101710.23;1753754;81;21525;-50
2021/09/05 00:07:05;;;;;;;18.37;11.85;;;;;;;22.58;48.47;101715.11;1751081;80;21087;-49
2021/09/05 00:09:32;;;;;;;17.82;12.25;;;;;;;22.61;48.24;101721.09;1758998;80;21030;-49
2021/09/05 00:11:58;;;;;;;14.23;11.40;;;;;;;22.62;48.14;101717.97;1771956;80;21506;-49
2021/09/05 00:14:27;;;;;;;17.00;12.40;;;;;;;22.64;48.22;101723.59;1749150;80;21111;-49
2021/09/05 00:16:54;;;;;;;15.70;11.40;;;;;;;22.63;48.50;101728.49;1759807;80;21090;-48
2021/09/05 00:19:20;;;;;;;15.25;11.33;;;;;;;22.64;48.76;101731.55;1761426;80;21006;-49
2021/09/05 00:21:47;;;;;;;21.42;12.63;;;;;;;22.63;49.12;101728.49;1768865;80;21058;-48
2021/09/05 00:24:14;;;;;;;19.57;11.88;;;;;;;22.64;49.46;101728.03;1782404;80;21022;-49
2021/09/05 00:26:41;;;;;;;18.07;13.30;;;;;;;22.64;49.08;101726.23;1762157;80;21002;-49
2021/09/05 00:29:07;;;;;;;16.90;11.78;;;;;;;22.63;48.04;101724.52;1760763;80;21045;-49
2021/09/05 00:31:34;;;;;;;14.73;12.50;;;;;;;22.63;47.75;101731.61;1755525;80;21034;-49
2021/09/05 00:34:02;;;;;;;15.23;12.37;;;;;;;22.61;47.93;101729.05;1761116;80;21031;-49
2021/09/05 00:36:31;;;;;;;17.27;12.98;;;;;;;22.61;48.20;101733.03;1749592;80;21028;-50
2021/09/05 00:38:58;;;;;;;14.15;11.85;;;;;;;22.59;48.35;101736.23;1766726;80;21029;-49
2021/09/05 00:41:25;;;;;;;16.60;11.57;;;;;;;22.59;48.29;101730.06;1769024;80;21081;-49
2021/09/05 00:44:05;;;;;;;17.07;12.20;;;;;;;22.59;48.29;101726.95;1773666;80;21108;-49
2021/09/05 00:46:34;;;;;;;13.53;11.75;;;;;;;22.67;48.12;101734.97;1777904;80;21019;-49
2021/09/05 00:49:01;;;;;;;16.07;11.80;;;;;;;22.65;48.33;101726.61;1765657;80;21070;-49
2021/09/05 00:51:31;;;;;;;15.20;12.07;;;;;;;22.60;48.76;101737.97;1757552;80;20980;-49
2021/09/05 00:54:00;;;;;;;12.93;10.93;;;;;;;22.55;49.15;101732.02;1760769;80;21010;-49
2021/09/05 00:56:29;;;;;;;12.75;11.45;;;;;;;22.52;49.25;101734.82;1758107;80;21006;-49
2021/09/05 00:59:02;;;;;;;12.07;10.38;;;;;;;22.50;49.32;101740.69;1691552;83;21030;-49
2021/09/05 01:01:26;;;;;;;15.83;11.43;;;;;;;22.48;49.30;101742.56;1683711;83;20994;-50
2021/09/05 01:03:53;;;;;;;15.15;11.48;;;;;;;22.47;49.46;101739.55;1691118;83;21074;-49
2021/09/05 01:06:21;;;;;;;15.05;10.63;;;;;;;22.48;49.66;101741.23;1682887;83;21054;-49
2021/09/05 01:08:48;;;;;;;12.70;10.65;;;;;;;22.49;49.88;101740.31;1680676;83;21041;-49
2021/09/05 01:11:16;;;;;;;19.20;11.53;;;;;;;22.49;50.00;101744.30;1683749;83;21562;-49
2021/09/05 01:13:44;;;;;;;17.77;10.78;;;;;;;22.50;50.23;101744.66;1681584;84;21026;-49
2021/09/05 01:16:38;;;;;;;16.65;11.55;;;;;;;22.51;50.41;101737.11;1674125;83;21691;-49
2021/09/05 01:19:23;;;;;;;14.78;10.68;;;;;;;22.53;50.57;101744.51;1682950;84;21022;-49
2021/09/05 01:22:09;;;;;;;13.35;10.90;;;;;;;22.53;50.84;101735.69;1683866;83;21007;-49
2021/09/05 01:24:40;;;;;;;12.90;10.35;;;;;;;22.52;51.03;101735.31;1655106;85;21038;-49
2021/09/05 01:27:17;;;;;;;13.38;9.83;;;;;;;22.52;51.39;101734.82;1637943;86;21050;-49
2021/09/05 01:29:46;;;;;;;13.38;10.50;;;;;;;22.51;51.71;101734.45;1630663;87;21071;-50
2021/09/05 01:32:27;;;;;;;14.87;10.55;;;;;;;22.52;51.88;101734.82;1622397;86;21224;-49
2021/09/05 01:35:06;;;;;;;16.27;10.25;;;;;;;22.54;52.12;101732.97;1622673;86;21068;-50
2021/09/05 01:37:51;;;;;;;13.08;10.40;;;;;;;22.55;52.27;101728.03;1640918;86;21665;-49
2021/09/05 01:40:21;;;;;;;12.47;10.38;;;;;;;22.56;52.35;101726.25;1623651;86;21612;-49
2021/09/05 01:42:59;;;;;;;11.15;9.60;;;;;;;22.65;52.18;101725.28;1626354;86;21096;-50
2021/09/05 01:45:33;;;;;;;14.47;10.00;;;;;;;22.71;52.11;101728.55;1635047;87;21582;-50
2021/09/05 01:48:18;;;;;;;13.05;11.08;;;;;;;22.72;52.19;101728.45;1624897;86;21042;-50
2021/09/05 01:51:02;;;;;;;13.25;10.70;;;;;;;22.75;52.30;101741.52;1637028;86;21549;-50
2021/09/05 01:53:40;;;;;;;13.83;9.85;;;;;;;22.77;52.50;101745.44;1597049;89;21126;-50
2021/09/05 01:56:09;;;;;;;14.05;9.98;;;;;;;22.78;52.55;101757.75;1535888;92;21127;-50
2021/09/05 01:58:36;;;;;;;18.32;10.48;;;;;;;22.77;52.64;101756.92;1530410;92;21202;-49
2021/09/05 02:01:10;;;;;;;13.28;9.98;;;;;;;22.77;52.69;101760.03;1551420;89;21060;-49
2021/09/05 02:03:38;;;;;;;11.73;9.83;;;;;;;22.77;52.72;101754.73;1547058;91;21110;-49
2021/09/05 02:06:13;;;;;;;14.78;10.23;;;;;;;22.83;52.55;101752.59;1500110;95;21106;-49
2021/09/05 02:08:50;;;;;;;13.15;9.40;;;;;;;22.75;52.72;101748.66;1508305;95;21110;-50
2021/09/05 02:11:24;;;;;;;14.00;10.13;;;;;;;22.82;52.48;101752.66;1487568;95;21159;-50
2021/09/05 02:13:53;;;;;;;12.07;8.75;;;;;;;22.83;52.56;101752.59;1506935;95;21124;-49
2021/09/05 02:16:40;;;;;;;12.20;10.25;;;;;;;22.83;52.74;101754.38;1460797;97;21574;-49
2021/09/05 02:19:26;;;;;;;11.15;9.15;;;;;;;22.80;52.90;101756.73;1461461;97;21104;-50
2021/09/05 02:22:11;;;;;;;10.03;8.80;;;;;;;22.81;52.86;101756.27;1461742;97;21066;-50
2021/09/05 02:24:57;;;;;;;13.13;8.93;;;;;;;22.92;52.67;101759.14;1461473;97;21106;-50
2021/09/05 02:28:34;;;;;;;12.47;8.70;;;;;;;23.03;52.47;101766.03;1464905;97;21597;-50
2021/09/05 02:32:44;;;;;;;12.47;9.00;;;;;;;23.05;52.60;101772.97;1446135;98;21112;-49
2021/09/05 02:35:28;;;;;;;10.90;8.78;;;;;;;23.07;52.50;101772.41;1406130;101;21573;-49
2021/09/05 02:38:12;;;;;;;14.90;8.98;;;;;;;23.09;52.39;101767.87;1441672;98;21145;-50
2021/09/05 02:40:42;;;;;;;11.75;8.73;;;;;;;23.09;52.17;101783.80;1436688;99;21081;-49
2021/09/05 02:43:44;;;;;;;12.82;8.15;;;;;;;23.07;52.00;101790.13;1446026;97;21804;-50
2021/09/05 02:46:30;;;;;;;12.18;7.92;;;;;;;23.08;51.92;101793.19;1459989;97;21065;-49
2021/09/05 02:49:11;;;;;;;9.45;8.45;;;;;;;23.06;51.68;101789.27;1466562;96;21624;-50
2021/09/05 02:51:40;;;;;;;11.68;8.95;;;;;;;22.88;52.05;101785.02;1403669;100;21571;-50
2021/09/05 02:54:17;;;;;;;11.18;8.78;;;;;;;22.86;52.31;101783.38;1362614;104;21092;-50
2021/09/05 02:56:56;;;;;;;9.85;7.37;;;;;;;22.87;52.38;101791.74;1387117;103;21189;-50
2021/09/05 02:59:33;;;;;;;9.58;7.92;;;;;;;22.87;52.44;101791.74;1376668;102;21151;-50
2021/09/05 03:02:02;;;;;;;8.88;7.85;;;;;;;22.83;52.58;101796.84;1383850;102;21167;-49
2021/09/05 03:04:47;;;;;;;12.60;7.78;;;;;;;22.75;52.80;101791.11;1383759;102;21172;-48
2021/09/05 03:07:32;;;;;;;14.25;8.08;;;;;;;22.73;52.93;101800.95;1378539;101;21249;-49
2021/09/05 03:10:05;;;;;;;7.85;6.92;;;;;;;22.73;53.01;101796.47;1382667;102;21151;-50
2021/09/05 03:12:42;;;;;;;10.35;8.45;;;;;;;22.74;53.11;101802.65;1424060;100;21573;-51
2021/09/05 03:15:23;;;;;;;8.80;7.28;;;;;;;22.74;53.03;101799.99;1409098;101;21180;-49
2021/09/05 03:17:51;;;;;;;12.33;7.12;;;;;;;22.74;52.92;101803.51;1414275;100;21220;-50
2021/09/05 03:20:36;;;;;;;9.63;7.50;;;;;;;22.73;52.81;101806.26;1413126;100;21138;-50
2021/09/05 03:23:21;;;;;;;9.88;7.65;;;;;;;22.71;52.72;101808.97;1411421;99;21163;-49
2021/09/05 03:26:05;;;;;;;9.70;7.33;;;;;;;22.71;52.74;101810.80;1449418;98;21072;-49
2021/09/05 03:28:46;;;;;;;9.55;7.03;;;;;;;22.69;52.78;101810.02;1418852;100;21092;-49
2021/09/05 03:31:31;;;;;;;11.83;7.35;;;;;;;22.67;52.84;101816.72;1464326;94;22831;-50
2021/09/05 03:34:03;;;;;;;7.85;7.05;;;;;;;22.82;52.51;101826.95;1425131;99;21132;-49
2021/09/05 03:36:48;;;;;;;10.58;6.87;;;;;;;22.85;52.44;101821.49;1405990;100;21142;-50
2021/09/05 03:39:25;;;;;;;11.20;6.42;;;;;;;22.76;52.47;101821.98;1440632;96;21628;-49
2021/09/05 03:42:11;;;;;;;7.97;6.58;;;;;;;22.64;52.44;101824.41;1515061;94;21124;-49
2021/09/05 03:44:56;;;;;;;7.83;6.08;;;;;;;22.62;52.41;101823.63;1519313;94;21055;-50
2021/09/05 03:47:26;;;;;;;9.00;6.97;;;;;;;22.63;52.34;101822.67;1477309;96;21111;-49
2021/09/05 03:49:57;;;;;;;7.00;6.28;;;;;;;22.54;52.61;101828.47;1417322;101;21177;-49
2021/09/05 03:52:25;;;;;;;11.73;6.90;;;;;;;22.54;52.67;101839.08;1436647;100;21085;-49
2021/09/05 03:54:54;;;;;;;8.98;6.97;;;;;;;22.54;52.38;101849.69;1439468;99;21166;-50
2021/09/05 03:57:22;;;;;;;7.10;6.33;;;;;;;22.52;52.44;101856.84;1436958;99;21183;-49
2021/09/05 03:59:50;;;;;;;8.83;6.92;;;;;;;22.53;52.49;101863.87;1442292;99;21165;-50
2021/09/05 04:02:19;;;;;;;9.90;7.42;;;;;;;22.52;52.51;101867.95;1438335;99;21104;-50
2021/09/05 04:04:46;;;;;;;10.03;6.72;;;;;;;22.50;52.56;101869.33;1468683;94;22054;-50
2021/09/05 04:07:17;;;;;;;8.08;6.90;;;;;;;22.50;52.52;101868.00;1501330;94;21097;-49
2021/09/05 04:12:27;;;;;;;9.13;6.67;;;;;;;22.48;52.33;101876.52;1550465;92;21073;-50
2021/09/05 04:14:56;;;;;;;8.73;6.78;;;;;;;22.48;52.23;101878.33;1551059;92;21059;-49
2021/09/05 04:17:23;;;;;;;10.35;6.35;;;;;;;22.49;52.27;101882.22;1555621;92;21618;-50
2021/09/05 04:19:50;;;;;;;7.42;6.28;;;;;;;22.50;52.16;101883.09;1555054;91;21093;-50
2021/09/05 04:22:16;;;;;;;9.55;6.20;;;;;;;22.53;52.13;101879.79;1552869;92;21609;-49
2021/09/05 04:24:43;;;;;;;10.08;6.60;;;;;;;22.55;52.00;101875.26;1553769;91;21079;-49
2021/09/05 04:27:10;;;;;;;11.95;7.17;;;;;;;22.57;51.85;101882.66;1594966;86;21566;-49
2021/09/05 04:29:36;;;;;;;8.20;6.20;;;;;;;22.59;51.81;101870.67;1591809;88;21091;-49
2021/09/05 04:32:05;;;;;;;8.90;6.67;;;;;;;22.59;51.75;101876.84;1653417;85;21063;-50
2021/09/05 04:34:31;;;;;;;9.35;6.30;;;;;;;22.55;51.77;101881.02;1647381;85;21606;-50
2021/09/05 04:36:58;;;;;;;9.03;6.45;;;;;;;22.51;51.84;101885.65;1596305;88;21089;-50
2021/09/05 04:39:25;;;;;;;10.68;6.67;;;;;;;22.45;51.99;101884.65;1606609;88;21110;-50
2021/09/05 04:41:51;;;;;;;6.20;5.58;;;;;;;22.43;52.22;101886.53;1597564;88;21011;-50
2021/09/05 04:44:19;;;;;;;7.58;6.15;;;;;;;22.41;52.08;101879.58;1708606;80;21582;-49
2021/09/05 04:46:46;;;;;;;8.65;5.75;;;;;;;22.39;52.27;101880.13;1751948;80;21039;-50
2021/09/05 04:49:12;;;;;;;7.55;5.37;;;;;;;22.39;52.71;101882.33;1757209;80;21059;-50
2021/09/05 04:51:40;;;;;;;10.00;5.87;;;;;;;22.42;53.17;101894.08;1772501;80;21030;-49
2021/09/05 04:54:07;;;;;;;6.53;5.80;;;;;;;22.43;53.34;101897.14;1761230;80;21479;-49
2021/09/05 04:56:34;;;;;;;9.80;6.80;;;;;;;22.46;53.60;101899.61;1764295;80;20995;-50
2021/09/05 04:59:01;;;;;;;15.25;7.85;;;;;;;22.48;53.68;101903.03;1761604;80;21455;-50
2021/09/05 05:01:29;;;;;;;9.65;7.55;;;;;;;22.53;53.65;101906.78;1765341;80;21034;-49
2021/09/05 05:03:56;;;;;;;9.35;7.40;;;;;;;22.55;53.77;101907.09;1769243;80;21019;-50
2021/09/05 05:06:23;;;;;;;12.28;6.30;;;;;;;22.57;53.94;101915.83;1761985;80;21486;-49
2021/09/05 05:08:51;;;;;;;9.65;6.53;;;;;;;22.59;53.84;101919.28;1772027;80;21568;-50
2021/09/05 05:11:19;;;;;;;9.18;6.37;;;;;;;22.60;53.86;101923.67;1676530;83;21101;-50
2021/09/05 05:13:47;;;;;;;7.70;6.42;;;;;;;22.63;53.88;101926.14;1725986;82;21027;-49
2021/09/05 05:16:15;;;;;;;9.23;6.80;;;;;;;22.63;53.65;101924.81;1728549;82;21077;-49
2021/09/05 05:18:43;;;;;;;11.03;6.42;;;;;;;22.64;52.82;101923.03;1721856;82;21026;-49
2021/09/05 05:21:12;;;;;;;11.65;7.62;;;;;;;22.62;52.20;101919.14;1723013;82;21628;-50
2021/09/05 05:23:38;;;;;;;14.40;8.85;;;;;;;22.58;51.83;101920.24;1738136;81;21093;-50
2021/09/05 05:26:05;;;;;;;15.45;8.50;;;;;;;22.55;51.77;101919.03;1740165;82;21498;-49
2021/09/05 05:28:32;;;;;;;12.68;6.87;;;;;;;22.53;51.54;101919.58;1717332;82;21084;-49
2021/09/05 05:30:58;;;;;;;10.53;8.15;;;;;;;22.49;51.33;101933.95;1730500;82;21007;-49
2021/09/05 05:33:25;;;;;;;12.23;7.50;;;;;;;22.44;51.35;101942.59;1722673;82;21073;-49
2021/09/05 05:35:52;;;;;;;8.40;7.00;;;;;;;22.40;51.36;101935.73;1716110;82;21110;-50
2021/09/05 05:38:19;;;;;;;12.10;7.03;;;;;;;22.35;51.41;101940.44;1725661;82;21108;-50
2021/09/05 05:40:46;;;;;;;13.03;7.67;;;;;;;22.33;51.52;101943.64;1755109;80;21002;-49
2021/09/05 05:43:12;;;;;;;9.85;7.05;;;;;;;22.33;51.21;101950.73;1776488;80;21014;-50
2021/09/05 05:45:39;;;;;;;9.23;7.62;;;;;;;22.32;51.09;101946.34;1766084;80;21490;-50
2021/09/05 05:48:07;;;;;;;9.78;6.92;;;;;;;22.33;50.82;101950.27;1777773;80;21061;-50
2021/09/05 05:50:34;;;;;;;9.70;6.55;;;;;;;22.35;50.60;101952.37;1769663;80;21038;-49
2021/09/05 05:53:01;;;;;;;11.38;7.00;;;;;;;22.36;50.66;101962.03;1780992;80;20994;-50
2021/09/05 05:55:27;;;;;;;10.38;6.50;;;;;;;22.37;50.67;101963.77;1761673;80;21093;-49
2021/09/05 05:57:56;;;;;;;10.40;7.12;;;;;;;22.37;50.54;101965.09;1769995;80;21018;-50
2021/09/05 06:00:26;;;;;;;9.50;6.65;;;;;;;22.38;50.46;101976.07;1758465;80;21042;-49
2021/09/05 06:02:54;;;;;;;10.00;7.55;;;;;;;22.37;50.28;101977.48;1766928;80;21525;-50
2021/09/05 06:05:22;;;;;;;9.60;7.45;;;;;;;22.35;50.18;101974.05;1767239;80;21077;-49
2021/09/05 06:07:48;;;;;;;11.50;7.28;;;;;;;22.36;49.94;101977.94;1769328;80;21100;-48
2021/09/05 06:10:15;;;;;;;8.83;7.40;;;;;;;22.41;49.38;101979.03;1777688;80;21140;-49
2021/09/05 06:12:42;;;;;;;8.50;6.80;;;;;;;22.38;49.16;101973.42;1758657;80;21040;-49
2021/09/05 06:15:11;;;;;;;14.47;9.13;;;;;;;22.38;49.28;101986.67;1751651;80;20986;-49
2021/09/05 06:17:39;;;;;;;15.75;8.40;;;;;;;22.38;49.31;101990.66;1764555;80;21014;-49
2021/09/05 06:20:07;;;;;;;17.62;12.63;;;;;;;22.36;49.11;101997.83;1774161;80;21022;-48
2021/09/05 06:22:36;;;;;;;14.18;10.55;;;;;;;22.33;49.01;102007.28;1765494;80;21118;-48
2021/09/05 06:25:04;;;;;;;12.93;9.28;;;;;;;22.30;49.06;102008.75;1760813;80;21046;-48
2021/09/05 06:27:31;;;;;;;9.18;7.42;;;;;;;22.27;49.02;102011.58;1765372;80;20972;-50
2021/09/05 06:30:00;;;;;;;10.80;8.15;;;;;;;22.25;48.86;102011.26;1768490;80;21070;-51
2021/09/05 06:32:28;;;;;;;14.20;7.53;;;;;;;22.21;48.81;102014.54;1766078;80;21015;-50
2021/09/05 06:34:55;;;;;;;13.70;7.70;;;;;;;22.20;48.67;102016.78;1771201;80;21549;-50
2021/09/05 06:37:23;;;;;;;10.95;7.30;;;;;;;22.20;48.30;102019.44;1775202;80;21027;-50
2021/09/05 06:39:51;;;;;;;10.28;7.28;;;;;;;22.19;48.42;102023.03;1771528;80;21050;-49
2021/09/05 06:42:18;;;;;;;11.15;7.22;;;;;;;22.19;48.82;102029.66;1756446;81;21010;-49
2021/09/05 06:44:44;;;;;;;14.60;7.65;;;;;;;22.19;49.24;102035.43;1755025;80;21062;-49
2021/09/05 06:47:11;;;;;;;10.30;6.92;;;;;;;22.18;49.43;102039.86;1768867;80;21006;-50
2021/09/05 06:49:38;;;;;;;9.60;7.75;;;;;;;22.16;49.23;102040.87;1774993;80;21050;-49
2021/09/05 06:52:07;;;;;;;12.23;7.30;;;;;;;22.12;49.25;102046.80;1777442;80;21589;-50
2021/09/05 06:54:33;;;;;;;10.75;7.15;;;;;;;22.07;49.31;102047.48;1774112;80;21002;-50
2021/09/05 06:57:00;;;;;;;9.40;6.70;;;;;;;22.04;49.84;102052.08;1749432;80;21069;-50
2021/09/05 06:59:27;;;;;;;8.08;7.17;;;;;;;22.00;50.56;102056.68;1759168;80;21549;-49
2021/09/05 07:01:53;;;;;;;8.33;6.28;;;;;;;21.97;51.03;102048.86;1709498;83;21113;-50
2021/09/05 07:04:20;;;;;;;10.58;7.78;;;;;;;21.94;51.23;102054.33;1735059;82;21568;-50
2021/09/05 07:06:47;;;;;;;8.98;6.90;;;;;;;21.90;51.42;102058.06;1709637;82;21566;-49
2021/09/05 07:09:14;;;;;;;9.30;6.33;;;;;;;21.88;51.39;102057.28;1778797;80;21019;-49
2021/09/05 07:11:40;;;;;;;9.35;7.22;;;;;;;21.84;51.27;102058.36;1759834;80;21082;-49
2021/09/05 07:14:07;;;;;;;9.48;6.78;;;;;;;21.80;51.29;102071.33;1758441;81;21534;-48
2021/09/05 07:16:35;;;;;;;9.88;7.25;;;;;;;21.77;51.62;102068.80;1775111;80;21059;-49
2021/09/05 07:19:02;;;;;;;8.68;6.97;;;;;;;21.75;51.42;102074.64;1759580;80;21068;-49
2021/09/05 07:21:29;;;;;;;7.87;6.90;;;;;;;21.74;51.49;102078.24;1766621;80;20978;-51
2021/09/05 07:23:56;;;;;;;8.60;7.47;;;;;;;21.70;51.71;102079.32;1776384;80;21060;-50
2021/09/05 07:26:23;;;;;;;11.80;7.42;;;;;;;21.66;51.94;102073.73;1776346;80;20998;-49
2021/09/05 07:28:50;;;;;;;10.70;7.03;;;;;;;21.62;52.16;102073.49;1747069;80;21118;-49
2021/09/05 07:31:17;;;;;;;11.08;7.10;;;;;;;21.58;52.28;102069.27;1745280;80;21579;-50
2021/09/05 07:33:50;;;;;;;7.37;6.67;;;;;;;21.55;52.59;102065.45;1754759;80;21073;-49
2021/09/05 07:36:25;;;;;;;10.53;7.75;;;;;;;21.53;52.81;102065.99;1764013;80;21427;-49
2021/09/05 07:39:09;;;;;;;10.68;7.37;;;;;;;21.57;52.91;102075.52;1765590;80;21131;-51
2021/09/05 07:41:36;;;;;;;11.08;7.75;;;;;;;21.59;53.07;102085.11;1765826;80;21007;-47
2021/09/05 07:44:04;;;;;;;10.90;7.45;;;;;;;21.61;53.24;102092.52;1761875;80;21081;-47
2021/09/05 07:46:30;;;;;;;9.20;7.62;;;;;;;21.64;53.54;102095.47;1760608;80;21092;-48
2021/09/05 07:48:57;;;;;;;9.35;8.25;;;;;;;21.63;53.85;102097.73;1768350;80;20976;-48
2021/09/05 07:51:24;;;;;;;11.68;8.73;;;;;;;21.61;53.91;102102.25;1766005;80;21169;-51
2021/09/05 07:53:53;;;;;;;9.88;8.35;;;;;;;21.59;53.99;102098.36;1778635;80;21011;-47
2021/09/05 07:56:21;;;;;;;10.20;8.18;;;;;;;21.59;54.00;102108.09;1692413;83;21034;-52
2021/09/05 07:58:48;;;;;;;9.75;8.65;;;;;;;21.58;54.18;102112.52;1697366;83;21009;-48
2021/09/05 08:01:15;;;;;;;13.85;9.08;;;;;;;21.55;54.30;102110.48;1688208;83;21061;-48
2021/09/05 08:03:43;;;;;;;12.47;9.20;;;;;;;21.58;54.45;102105.02;1697893;83;21067;-47
2021/09/05 08:06:10;;;;;;;12.60;8.90;;;;;;;21.61;54.47;102110.20;1693422;83;21577;-47
2021/09/05 08:08:37;;;;;;;11.48;9.53;;;;;;;21.65;54.48;102107.80;1695092;83;21031;-50
2021/09/05 08:11:04;;;;;;;15.03;10.08;;;;;;;21.70;54.40;102115.08;1687487;83;21031;-49
2021/09/05 08:13:32;;;;;;;13.98;9.10;;;;;;;21.75;54.30;102115.71;1690603;83;21090;-49
2021/09/05 08:16:01;;;;;;;17.57;10.25;;;;;;;21.80;54.18;102117.70;1695119;84;21559;-50
2021/09/05 08:18:30;;;;;;;11.78;8.53;;;;;;;21.84;54.07;102122.79;1672878;84;21063;-48
2021/09/05 08:20:59;;;;;;;12.03;8.25;;;;;;;21.90;54.09;102121.66;1688015;83;21118;-48
2021/09/05 08:23:26;;;;;;;11.15;7.87;;;;;;;21.94;53.96;102117.94;1672484;84;21051;-52
2021/09/05 08:25:52;;;;;;;11.75;7.78;;;;;;;21.99;53.97;102120.38;1686155;84;21056;-47
2021/09/05 08:28:19;;;;;;;13.60;7.80;;;;;;;22.03;53.94;102122.78;1681645;84;21042;-47
2021/09/05 08:30:48;;;;;;;9.63;8.23;;;;;;;22.06;53.86;102117.34;1680771;84;21051;-50
2021/09/05 08:33:17;;;;;;;10.95;7.80;;;;;;;22.10;53.81;102114.94;1685514;84;21652;-47
2021/09/05 08:35:47;;;;;;;12.15;8.25;;;;;;;22.13;53.63;102116.13;1589264;87;21121;-52
2021/09/05 08:38:14;;;;;;;11.53;6.85;;;;;;;22.16;53.68;102120.41;1585607;90;21101;-49
2021/09/05 08:40:44;;;;;;;10.98;7.62;;;;;;;22.18;53.45;102122.52;1589768;89;21112;-49
2021/09/05 08:43:11;;;;;;;12.00;7.65;;;;;;;22.16;53.08;102115.09;1543489;91;21133;-49
2021/09/05 08:45:37;;;;;;;9.75;6.87;;;;;;;22.14;52.94;102123.14;1537520;91;21587;-49
2021/09/05 08:48:05;;;;;;;8.70;7.00;;;;;;;22.14;52.85;102123.14;1542212;91;21136;-50
2021/09/05 08:50:33;;;;;;;8.25;6.40;;;;;;;22.15;53.07;102124.87;1555342;90;21115;-49
2021/09/05 08:52:59;;;;;;;9.68;6.28;;;;;;;22.18;52.80;102127.36;1558642;89;21099;-47
2021/09/05 08:55:26;;;;;;;7.60;5.90;;;;;;;22.20;53.05;102126.81;1600505;89;21027;-47
2021/09/05 08:57:54;;;;;;;8.30;6.67;;;;;;;22.23;53.13;102120.05;1590194;89;21555;-48
2021/09/05 09:00:21;;;;;;;9.18;6.20;;;;;;;22.27;53.04;102117.64;1583555;89;21087;-47
2021/09/05 09:02:53;;;;;;;8.53;6.15;;;;;;;22.32;52.97;102114.28;1574480;89;21553;-50
2021/09/05 09:05:35;;;;;;;16.05;8.23;;;;;;;22.38;53.02;102119.28;1580648;89;21019;-50
2021/09/05 09:08:07;;;;;;;10.38;7.33;;;;;;;22.44;52.84;102125.61;1595898;88;21074;-50
2021/09/05 09:10:48;;;;;;;9.88;8.28;;;;;;;22.46;52.62;102123.73;1497851;94;21188;-47
2021/09/05 09:13:32;;;;;;;12.30;9.08;;;;;;;22.46;52.44;102125.06;1502670;95;21051;-47
2021/09/05 09:16:07;;;;;;;13.95;8.60;;;;;;;22.47;52.12;102129.45;1497498;94;21043;-49
2021/09/05 09:18:35;;;;;;;10.15;7.80;;;;;;;22.48;51.97;102126.34;1501856;94;21603;-50
2021/09/05 09:21:04;;;;;;;12.25;8.48;;;;;;;22.51;51.71;102115.09;1504967;93;21117;-48
2021/09/05 09:23:35;;;;;;;14.03;8.30;;;;;;;22.54;51.66;102116.75;1477961;95;21090;-50
2021/09/05 09:26:07;;;;;;;14.78;8.05;;;;;;;22.57;51.69;102110.81;1484722;94;21124;-50
2021/09/05 09:28:41;;;;;;;8.85;7.95;;;;;;;22.60;51.55;102119.99;1508772;93;21109;-48
2021/09/05 09:31:18;;;;;;;10.50;8.85;;;;;;;22.60;51.32;102119.99;1496128;95;21165;-47
2021/09/05 09:33:48;;;;;;;10.00;8.70;;;;;;;22.62;51.18;102126.08;1542557;91;21110;-49
2021/09/05 09:36:17;;;;;;;10.88;7.92;;;;;;;22.67;51.25;102126.31;1529383;92;21182;-46
2021/09/05 09:39:05;;;;;;;10.30;8.35;;;;;;;22.71;51.22;102122.57;1547407;92;21466;-50
2021/09/05 09:41:34;;;;;;;13.83;8.25;;;;;;;22.74;50.99;102128.58;1587348;89;21096;-50
2021/09/05 09:44:02;;;;;;;12.73;8.25;;;;;;;22.76;51.13;102130.68;1597405;89;21071;-53
2021/09/05 09:46:34;;;;;;;11.00;8.18;;;;;;;22.79;51.24;102132.33;1592254;89;21171;-49
2021/09/05 09:49:05;;;;;;;9.33;7.50;;;;;;;22.76;51.34;102128.48;1578491;89;21045;-52
2021/09/05 09:51:32;;;;;;;12.30;8.60;;;;;;;22.84;51.23;102124.97;1575592;89;21148;-49
2021/09/05 09:54:00;;;;;;;9.88;7.67;;;;;;;22.88;51.36;102126.07;1591995;89;21157;-48
2021/09/05 09:56:27;;;;;;;13.03;8.13;;;;;;;22.91;51.13;102124.60;1584344;89;21065;-46
2021/09/05 09:59:03;;;;;;;13.32;8.85;;;;;;;22.95;50.95;102123.50;1599402;89;21623;-52
2021/09/05 10:01:31;;;;;;;10.65;8.28;;;;;;;23.00;50.98;102121.45;1586674;89;21902;-46
2021/09/05 10:04:00;;;;;;;10.60;8.23;;;;;;;23.07;50.85;102124.19;1589589;89;21086;-50
2021/09/05 10:06:33;;;;;;;11.75;7.65;;;;;;;23.13;50.70;102130.51;1571306;89;21163;-49
2021/09/05 10:09:04;;;;;;;9.63;7.92;;;;;;;23.18;50.56;102123.63;1571256;90;21148;-46
2021/09/05 10:11:34;;;;;;;;;;;;;;;23.22;50.49;102126.52;1567883;90;21105;-49
2021/09/05 10:14:01;;;;;;;9.98;8.00;;;;;;;23.25;50.39;102132.98;1580816;88;20194;-46
2021/09/05 10:16:30;;;;;;;10.30;7.53;;;;;;;23.26;50.49;102131.59;1601637;89;21072;-49
2021/09/05 10:19:01;;;;;;;9.73;7.75;;;;;;;23.30;50.07;102126.97;1628543;85;21119;-48
2021/09/05 10:21:28;;;;;;;10.93;7.72;;;;;;;23.35;49.78;102130.25;1548412;91;21599;-49
2021/09/05 10:23:58;;;;;;;11.60;7.15;;;;;;;23.41;49.99;102136.10;1550074;89;21674;-49
2021/09/05 10:26:26;;;;;;;8.90;6.67;;;;;;;23.49;49.73;102138.37;1560738;90;21109;-51
2021/09/05 10:28:57;;;;;;;8.80;7.17;;;;;;;23.56;49.42;102129.11;1558308;91;21655;-48
2021/09/05 10:31:30;;;;;;;8.60;7.42;;;;;;;23.65;48.87;102141.05;1564301;90;21219;-50
2021/09/05 10:33:59;;;;;;;9.53;8.08;;;;;;;23.69;48.09;102146.13;1557939;91;21259;-47
2021/09/05 10:36:27;;;;;;;11.63;7.95;;;;;;;23.73;47.96;102147.67;1611394;88;21062;-47
2021/09/05 10:39:06;;;;;;;11.50;6.97;;;;;;;23.75;47.70;102143.13;1611174;87;21585;-46
2021/09/05 10:41:49;;;;;;;9.13;7.10;;;;;;;23.75;47.27;102133.82;1602790;87;21043;-47
2021/09/05 10:44:17;;;;;;;16.17;7.22;;;;;;;23.76;47.15;102142.17;1545841;90;21076;-53
2021/09/05 10:46:47;;;;;;;8.45;6.80;;;;;;;23.78;46.93;102140.28;1550668;90;21082;-47
2021/09/05 10:49:14;;;;;;;9.78;6.60;;;;;;;23.83;46.28;102137.38;1557327;91;21080;-50
2021/09/05 10:51:50;;;;;;;7.85;6.80;;;;;;;23.91;45.75;102136.02;1564056;90;21622;-47
2021/09/05 10:54:27;;;;;;;7.45;6.55;;;;;;;23.96;45.23;102139.30;1525044;92;22127;-47
2021/09/05 10:56:59;;;;;;;8.00;7.05;;;;;;;24.00;44.92;102144.83;1533762;91;21107;-50
2021/09/05 10:59:35;;;;;;;11.65;7.70;;;;;;;24.02;45.22;102137.63;1528079;92;21081;-48
2021/09/05 11:02:03;;;;;;;8.75;6.72;;;;;;;24.03;45.05;102136.69;1532878;91;22969;-50
2021/09/05 11:04:39;;;;;;;9.60;6.00;;;;;;;24.03;44.72;102138.02;1497987;91;21138;-47
2021/09/05 11:07:13;;;;;;;7.85;5.83;;;;;;;24.06;44.88;102131.68;1533449;92;21078;-48
2021/09/05 11:09:43;;;;;;;8.65;5.62;;;;;;;24.10;44.40;102142.06;1518465;92;21206;-49
2021/09/05 11:12:14;;;;;;;7.23;5.00;;;;;;;24.14;44.19;102138.29;1551167;92;21056;-50
2021/09/05 11:14:53;;;;;;;8.33;5.95;;;;;;;24.18;44.07;102137.17;1588923;89;21279;-48
2021/09/05 11:17:32;;;;;;;8.53;5.90;;;;;;;24.22;44.03;102138.71;1594146;87;21086;-50
2021/09/05 11:20:11;;;;;;;11.22;6.47;;;;;;;24.23;44.43;102129.77;1587909;89;21128;-47
2021/09/05 11:22:47;;;;;;;9.13;4.75;;;;;;;24.30;44.52;102134.77;1623396;87;21066;-50
2021/09/05 11:25:28;;;;;;;4.92;4.05;;;;;;;24.36;43.71;102129.09;1614094;88;21562;-48
2021/09/05 11:28:08;;;;;;;6.62;3.60;;;;;;;24.40;43.16;102130.64;1612292;88;21086;-51
2021/09/05 11:30:43;;;;;;;8.35;3.75;;;;;;;24.42;43.03;102131.41;1515111;93;21938;-48
2021/09/05 11:33:12;;;;;;;4.83;3.10;;;;;;;24.48;43.60;102120.41;1551420;90;21134;-51
2021/09/05 11:35:45;;;;;;;15.23;4.42;;;;;;;24.51;43.16;102128.19;1551107;92;21113;-50
2021/09/05 11:38:15;;;;;;;9.70;3.70;;;;;;;24.54;42.82;102122.70;1552599;91;21177;-50
2021/09/05 11:40:51;;;;;;;5.92;3.55;;;;;;;24.57;42.68;102125.17;1555453;90;21602;-49
2021/09/05 11:43:33;;;;;;;7.08;3.45;;;;;;;24.58;42.64;102129.56;1553287;91;21564;-49